Time,TemperatureF,DewpointF,PressureIn,WindDirection,WindDirectionDegrees,WindSpeedMPH,WindSpeedGustMPH,Humidity,HourlyPrecipIn,Conditions,Clouds,dailyrainin,SoftwareType,DateUTC
2013-01-06 15:00:00,56.0,43.0,30.27,ENE,60,13.0,14.0,62,-99.99,,,-99.99,,2013-01-06 21:00:00,
2013-01-06 15:32:00,56.0,43.0,30.27,ENE,60,13.0,14.0,62,-99.99,,,-99.99,,2013-01-06 21:32:00,
2013-01-06 15:42:00,56.0,43.0,30.27,ENE,60,13.0,14.0,62,-99.99,,,-99.99,,2013-01-06 21:42:00,
2013-01-06 15:52:00,56.0,43.0,30.27,ENE,60,13.0,14.0,62,-99.99,,,-99.99,,2013-01-06 21:52:00,
2013-01-06 16:00:00,56.0,43.0,30.28,NE,50,11.0,13.0,61,-99.99,,,-99.99,,2013-01-06 22:00:00,
2013-01-06 16:22:00,56.0,43.0,30.28,NE,50,11.0,13.0,61,-99.99,,,-99.99,,2013-01-06 22:22:00,
2013-01-06 16:32:00,56.0,43.0,30.28,NE,50,11.0,13.0,61,-99.99,,,-99.99,,2013-01-06 22:32:00,
2013-01-06 16:42:00,56.0,43.0,30.28,NE,50,11.0,13.0,61,-99.99,,,-99.99,,2013-01-06 22:42:00,
2013-01-06 16:52:00,56.0,43.0,30.28,NE,50,11.0,13.0,61,-99.99,,,-99.99,,2013-01-06 22:52:00,
2013-01-06 17:00:00,55.0,44.0,30.27,ENE,60,13.0,14.0,64,-99.99,,,-99.99,,2013-01-06 23:00:00,
2013-01-06 17:22:00,55.0,44.0,30.27,ENE,60,13.0,14.0,64,-99.99,,,-99.99,,2013-01-06 23:22:00,
2013-01-06 17:32:00,55.0,44.0,30.27,ENE,60,13.0,14.0,64,-99.99,,,-99.99,,2013-01-06 23:32:00,
2013-01-06 17:42:00,55.0,44.0,30.27,ENE,60,13.0,14.0,64,-99.99,,,-99.99,,2013-01-06 23:42:00,
2013-01-06 17:52:00,55.0,44.0,30.27,ENE,60,13.0,14.0,64,-99.99,,,-99.99,,2013-01-06 23:52:00,
2013-01-06 18:00:00,56.0,45.0,30.27,ENE,60,13.0,14.0,68,-99.99,,,-99.99,,2013-01-07 00:00:00,
2013-01-06 18:22:00,56.0,45.0,30.27,ENE,60,13.0,14.0,68,-99.99,,,-99.99,,2013-01-07 00:22:00,
2013-01-06 18:32:00,56.0,45.0,30.27,ENE,60,13.0,14.0,68,-99.99,,,-99.99,,2013-01-07 00:32:00,
2013-01-06 18:42:00,56.0,45.0,30.27,ENE,60,13.0,14.0,68,-99.99,,,-99.99,,2013-01-07 00:42:00,
2013-01-06 18:52:00,56.0,45.0,30.27,ENE,60,13.0,14.0,68,-99.99,,,-99.99,,2013-01-07 00:52:00,
2013-01-06 19:00:00,56.0,46.0,30.29,NNE,30,9.0,10.0,70,-99.99,,,-99.99,,2013-01-07 01:00:00,
2013-01-06 19:22:00,56.0,46.0,30.29,NNE,30,9.0,10.0,70,-99.99,,,-99.99,,2013-01-07 01:22:00,
2013-01-06 19:32:00,56.0,46.0,30.29,NNE,30,9.0,10.0,70,-99.99,,,-99.99,,2013-01-07 01:32:00,
2013-01-06 19:42:00,56.0,46.0,30.29,NNE,30,9.0,10.0,70,-99.99,,,-99.99,,2013-01-07 01:42:00,
2013-01-06 19:52:00,56.0,46.0,30.29,NNE,30,9.0,10.0,70,-99.99,,,-99.99,,2013-01-07 01:52:00,
2013-01-06 20:00:00,55.0,47.0,30.29,NNE,20,10.0,13.0,73,-99.99,,,-99.99,,2013-01-07 02:00:00,
2013-01-06 20:22:00,55.0,47.0,30.29,NNE,20,10.0,13.0,73,-99.99,,,-99.99,,2013-01-07 02:22:00,
2013-01-06 20:32:00,55.0,47.0,30.29,NNE,20,10.0,13.0,73,-99.99,,,-99.99,,2013-01-07 02:32:00,
2013-01-06 20:42:00,55.0,47.0,30.29,NNE,20,10.0,13.0,73,-99.99,,,-99.99,,2013-01-07 02:42:00,
2013-01-06 20:52:00,55.0,47.0,30.29,NNE,20,10.0,13.0,73,-99.99,,,-99.99,,2013-01-07 02:52:00,
2013-01-06 21:00:00,55.0,45.0,30.31,NNE,20,16.0,17.0,68,-99.99,,,-99.99,,2013-01-07 03:00:00,
2013-01-06 21:22:00,55.0,45.0,30.31,NNE,20,16.0,17.0,68,-99.99,,,-99.99,,2013-01-07 03:22:00,
2013-01-06 21:32:00,55.0,45.0,30.31,NNE,20,16.0,17.0,68,-99.99,,,-99.99,,2013-01-07 03:32:00,
2013-01-06 21:42:00,55.0,45.0,30.31,NNE,20,16.0,17.0,68,-99.99,,,-99.99,,2013-01-07 03:42:00,
2013-01-06 21:52:00,55.0,45.0,30.31,NNE,20,16.0,17.0,68,-99.99,,,-99.99,,2013-01-07 03:52:00,
2013-01-06 22:00:00,52.0,43.0,30.31,North,10,14.0,15.0,71,-99.99,,,-99.99,,2013-01-07 04:00:00,
2013-01-06 22:22:00,52.0,43.0,30.31,North,10,14.0,15.0,71,-99.99,,,-99.99,,2013-01-07 04:22:00,
2013-01-06 22:32:00,52.0,43.0,30.31,North,10,14.0,15.0,71,-99.99,,,-99.99,,2013-01-07 04:32:00,
2013-01-06 22:42:00,52.0,43.0,30.31,North,10,14.0,15.0,71,-99.99,,,-99.99,,2013-01-07 04:42:00,
2013-01-06 22:52:00,52.0,43.0,30.31,North,10,14.0,15.0,71,-99.99,,,-99.99,,2013-01-07 04:52:00,
2013-01-06 23:00:00,52.0,43.0,30.31,North,10,14.0,17.0,72,-99.99,,,-99.99,,2013-01-07 05:00:00,
2013-01-06 23:22:00,52.0,43.0,30.31,North,10,14.0,17.0,72,-99.99,,,-99.99,,2013-01-07 05:22:00,
2013-01-06 23:32:00,52.0,43.0,30.31,North,10,14.0,17.0,72,-99.99,,,-99.99,,2013-01-07 05:32:00,
2013-01-06 23:42:00,52.0,43.0,30.31,North,10,14.0,17.0,72,-99.99,,,-99.99,,2013-01-07 05:42:00,
2013-01-06 23:52:00,52.0,43.0,30.31,North,10,14.0,17.0,72,-99.99,,,-99.99,,2013-01-07 05:52:00,